Croton Hudson, New York
Current Conditions -  °F | °C
As of 5:56 AM on Thursday 23 Oct 2014 (Local Time) from KHPN Reporting Station
Light Rain Light Rain  
Wind Chill: 50°   Ceiling: 2000
Heat Index: 50°   Visibility: 10mi
Dew Point: 45°   Wind: 18mph
Humidity: 83%   Direction: 350°N
Pressure: 29.68"   Gusts: 28mph
Location:  41.2219°N, 73.887°W
Report Text: KHPN 230956Z 35016G24KT 10SM -RA OVC020 10/07 A2968 RMK AO2 RAE05B52 SLP053 P0000 T01000072
Loading
Personal Weather Stations






























Interactive Weather Map
Tropical Storm Tracking
New forecast layout! Learn more

10-Day Weather Forecast

Advertisements
Track Severe Weather on mobile